createdAt,value
2018-11-07T00:10:25.935Z,68.33
2018-11-07T00:12:56.070Z,67.99
2018-11-07T00:15:25.859Z,68.14
2018-11-07T00:35:25.446Z,67.81
2018-11-07T00:37:55.209Z,67.90
2018-11-07T00:40:24.915Z,68.09
2018-11-07T00:42:54.943Z,68.25
2018-11-07T00:45:24.529Z,67.96
2018-11-07T01:05:16.422Z,68.39
2018-11-07T01:07:47.116Z,68.28
2018-11-07T01:10:16.626Z,68.52
2018-11-07T01:12:46.431Z,68.77
2018-11-07T01:32:38.534Z,68.97
2018-11-07T01:35:08.821Z,68.69
2018-11-07T01:55:00.316Z,68.57
2018-11-07T01:57:30.028Z,68.88
2018-11-07T01:59:59.856Z,68.66
2018-11-07T02:02:29.605Z,68.57
2018-11-07T02:04:59.430Z,68.98
2018-11-07T02:24:50.523Z,69.35
2018-11-07T02:27:20.688Z,69.57
2018-11-07T02:29:50.433Z,69.15
2018-11-07T02:32:20.110Z,69.50
2018-11-07T02:34:50.019Z,68.88
2018-11-07T02:37:19.572Z,69.02
2018-11-07T02:57:11.891Z,69.33
2018-11-07T02:59:41.259Z,68.93
2018-11-07T03:02:10.945Z,69.17
2018-11-07T03:04:40.958Z,68.85
2018-11-07T03:07:10.653Z,69.07
2018-11-07T03:09:40.309Z,68.79
2018-11-07T03:12:09.999Z,69.07
2018-11-07T03:14:39.525Z,69.10
2018-11-07T03:17:09.458Z,69.33
2018-11-07T03:19:39.401Z,68.72
2018-11-07T03:22:08.860Z,68.87
2018-11-07T03:24:38.356Z,68.41
2018-11-07T03:27:08.020Z,68.18
2018-11-07T03:29:38.629Z,68.47
2018-11-07T03:32:08.889Z,68.36
2018-11-07T03:34:38.315Z,68.87
2018-11-07T03:37:07.972Z,68.42
2018-11-07T03:56:59.579Z,68.97
2018-11-07T04:16:51.734Z,69.20
2018-11-07T04:19:21.893Z,69.80
2018-11-07T04:39:13.445Z,68.15
2018-11-07T04:41:43.057Z,68.07
2018-11-07T04:44:12.677Z,68.44
2018-11-07T04:46:42.455Z,68.09
2018-11-07T04:49:12.141Z,66.84
2018-11-07T04:51:41.893Z,67.08
2018-11-07T04:54:11.525Z,67.23
2018-11-07T04:56:41.501Z,67.09
2018-11-07T05:16:34.624Z,68.54
2018-11-07T05:19:04.925Z,68.83
2018-11-07T05:38:55.827Z,69.20
2018-11-07T05:41:25.857Z,69.65
2018-11-07T05:43:55.626Z,69.28
2018-11-07T05:46:25.270Z,69.21
2018-11-07T05:49:01.689Z,69.37
2018-11-07T05:51:31.335Z,69.68
2018-11-07T05:54:01.139Z,69.39
2018-11-07T05:56:31.427Z,69.33
2018-11-07T05:59:00.983Z,68.60
2018-11-07T06:01:31.208Z,68.56
2018-11-07T06:04:01.205Z,68.60
2018-11-07T06:23:52.665Z,67.99
2018-11-07T06:26:23.065Z,67.87
2018-11-07T06:28:52.893Z,67.45
2018-11-07T06:31:22.793Z,67.79
2018-11-07T06:33:52.708Z,67.49
2018-11-07T06:36:22.451Z,67.24
2018-11-07T06:38:51.929Z,67.50
2018-11-07T06:41:21.680Z,67.67
2018-11-07T06:43:51.373Z,66.98
2018-11-07T06:46:20.918Z,67.05
2018-11-07T06:48:50.797Z,67.05
2018-11-07T06:51:20.297Z,66.67
2018-11-07T06:53:49.769Z,66.20
2018-11-07T06:56:19.391Z,66.00
2018-11-07T06:58:48.998Z,65.74
2018-11-07T07:01:18.847Z,65.63
2018-11-07T07:03:48.479Z,65.42
2018-11-07T07:06:18.141Z,64.81
2018-11-07T07:08:48.079Z,65.21
2018-11-07T07:11:17.713Z,65.20
2018-11-07T07:13:47.466Z,65.48
2018-11-07T07:16:17.006Z,65.12
2018-11-07T07:18:46.826Z,65.27
2018-11-07T07:41:33.833Z,63.68
2018-11-07T07:44:03.813Z,63.95
2018-11-07T07:46:33.437Z,64.10
2018-11-07T07:49:03.200Z,64.64
2018-11-07T07:51:32.854Z,64.76
2018-11-07T07:54:02.598Z,64.44
2018-11-07T07:56:32.595Z,64.61
2018-11-07T07:59:02.135Z,63.91
2018-11-07T08:01:31.941Z,63.73
2018-11-07T08:04:01.787Z,63.35
2018-11-07T08:06:34.321Z,63.05
2018-11-07T08:09:04.985Z,62.17
2018-11-07T08:11:34.542Z,62.22
2018-11-07T08:14:04.422Z,62.34
2018-11-07T08:16:34.209Z,61.81
2018-11-07T08:36:25.965Z,58.37
2018-11-07T08:38:55.761Z,58.01
2018-11-07T08:41:25.282Z,57.13
2018-11-07T09:01:16.950Z,57.20
2018-11-07T09:03:46.531Z,56.96
2018-11-07T09:06:16.035Z,57.52
2018-11-07T09:08:46.475Z,57.42
2018-11-07T09:11:15.907Z,57.07
2018-11-07T09:13:45.696Z,56.74
2018-11-07T09:16:15.305Z,56.44
2018-11-07T09:18:45.122Z,56.39
2018-11-07T09:21:14.539Z,56.64
2018-11-07T09:23:44.474Z,56.22
2018-11-07T09:26:14.093Z,54.94
2018-11-07T09:46:05.929Z,50.39
2018-11-07T09:48:35.782Z,49.30
2018-11-07T10:08:26.802Z,49.58
2018-11-07T10:10:56.575Z,48.60
2018-11-07T10:13:26.041Z,48.55
2018-11-07T10:15:55.684Z,46.71
2018-11-07T10:18:25.353Z,47.71
2018-11-07T10:20:55.147Z,47.92
2018-11-07T10:23:24.905Z,47.08
2018-11-07T10:25:54.636Z,45.87
2018-11-07T10:28:24.548Z,46.33
2018-11-07T10:30:54.228Z,44.79
2018-11-07T10:33:24.445Z,44.83
2018-11-07T10:35:54.239Z,43.61
2018-11-07T10:38:24.156Z,44.39
2018-11-07T10:40:53.834Z,44.01
2018-11-07T11:00:52.310Z,43.50
2018-11-07T11:03:26.885Z,43.21
2018-11-07T11:05:56.863Z,43.21
2018-11-07T11:08:26.425Z,42.85
2018-11-07T11:10:56.318Z,42.32
2018-11-07T11:13:26.279Z,41.59
2018-11-07T11:15:56.329Z,41.48
2018-11-07T11:18:26.293Z,41.36
2018-11-07T11:44:05.142Z,36.40
2018-11-07T11:46:34.965Z,36.06
2018-11-07T11:49:05.023Z,35.55
2018-11-07T11:51:35.447Z,34.27
2018-11-07T11:54:05.157Z,33.78
2018-11-07T11:56:34.802Z,33.76
2018-11-07T11:59:04.938Z,33.03
2018-11-07T12:01:34.467Z,32.11
2018-11-07T12:04:04.080Z,31.05
2018-11-07T12:06:33.984Z,30.27
2018-11-07T12:09:03.919Z,29.40
2018-11-07T12:11:33.695Z,29.40
2018-11-07T12:14:03.723Z,28.00
2018-11-07T12:16:33.391Z,27.75
2018-11-07T12:19:02.991Z,27.17
2018-11-07T12:21:32.613Z,26.84
2018-11-07T12:24:02.071Z,25.75
2018-11-07T12:26:31.743Z,25.87
2018-11-07T12:29:01.586Z,25.38
2018-11-07T12:48:53.046Z,24.16
2018-11-07T12:51:22.870Z,24.64
2018-11-07T12:53:52.569Z,24.12
2018-11-07T12:56:22.081Z,24.17
2018-11-07T12:58:51.744Z,23.89
2018-11-07T13:01:21.499Z,24.47
2018-11-07T13:03:51.202Z,23.78
2018-11-07T13:23:43.234Z,25.31
2018-11-07T13:26:12.935Z,25.28
2018-11-07T13:28:42.570Z,26.84
2018-11-07T13:31:12.205Z,26.56
2018-11-07T13:33:41.806Z,27.77
2018-11-07T13:36:11.610Z,28.52
2018-11-07T13:38:42.048Z,29.38
2018-11-07T13:41:11.381Z,29.05
2018-11-07T13:43:41.049Z,28.68
2018-11-07T13:46:10.841Z,29.48
2018-11-07T13:48:40.378Z,28.73
2018-11-07T13:51:10.010Z,28.78
2018-11-07T14:11:01.947Z,33.46
2018-11-07T14:13:31.760Z,34.58
2018-11-07T14:16:01.629Z,35.70
2018-11-07T14:18:32.409Z,36.53
2018-11-07T14:21:02.088Z,38.08
2018-11-07T14:23:32.144Z,38.13
2018-11-07T14:43:23.445Z,42.56
2018-11-07T14:45:53.305Z,42.89
2018-11-07T14:48:23.008Z,43.47
2018-11-07T14:50:52.698Z,43.85
2018-11-07T14:53:22.362Z,43.90
2018-11-07T14:55:52.222Z,44.51
2018-11-07T14:58:22.478Z,44.91
2018-11-07T15:00:52.390Z,45.17
2018-11-07T15:03:22.066Z,45.33
2018-11-07T15:05:52.103Z,45.53
2018-11-07T15:08:21.874Z,46.18
2018-11-07T15:42:54.483Z,49.80
2018-11-07T15:45:24.239Z,49.71
2018-11-07T15:47:54.130Z,50.35
2018-11-07T15:50:29.453Z,50.61
2018-11-07T15:52:59.083Z,50.98
2018-11-07T15:55:28.698Z,50.71
2018-11-07T15:57:58.450Z,51.01
2018-11-07T16:00:28.094Z,51.64
2018-11-07T16:02:58.011Z,51.53
2018-11-07T16:05:28.059Z,51.75
2018-11-07T16:07:57.643Z,51.83
2018-11-07T16:10:27.355Z,52.38
2018-11-07T16:12:57.489Z,52.58
2018-11-07T16:15:27.141Z,53.21
2018-11-07T16:17:56.919Z,52.24
2018-11-07T16:20:26.573Z,52.25
2018-11-07T16:22:56.150Z,52.41
2018-11-07T16:25:25.757Z,52.58
2018-11-07T16:27:55.497Z,53.04
2018-11-07T16:30:25.052Z,53.09
2018-11-07T16:32:54.648Z,53.25
2018-11-07T16:35:24.248Z,53.70
2018-11-07T16:37:53.781Z,53.88
2018-11-07T16:40:23.391Z,53.94
2018-11-07T16:42:53.453Z,53.87
2018-11-07T16:45:23.621Z,53.51
2018-11-07T16:47:53.862Z,53.25
2018-11-07T16:50:24.389Z,53.74
2018-11-07T16:52:54.465Z,53.86
2018-11-07T16:55:24.582Z,54.00
2018-11-07T16:57:54.313Z,53.93
2018-11-07T17:00:23.763Z,54.13
2018-11-07T17:02:53.660Z,54.18
2018-11-07T17:05:23.159Z,54.74
2018-11-07T17:07:54.074Z,54.82
2018-11-07T17:10:24.508Z,54.73
2018-11-07T17:12:54.516Z,55.12
2018-11-07T17:15:24.151Z,55.19
2018-11-07T17:17:54.226Z,55.31
2018-11-07T17:20:23.590Z,56.03
2018-11-07T17:22:53.360Z,55.52
2018-11-07T17:25:23.576Z,55.53
2018-11-07T17:27:53.088Z,55.65
2018-11-07T17:30:22.935Z,56.13
2018-11-07T17:32:52.657Z,56.42
2018-11-07T17:35:22.244Z,56.56
2018-11-07T17:37:51.905Z,57.03
2018-11-07T17:40:23.252Z,56.83
2018-11-07T17:42:53.399Z,56.41
2018-11-07T17:45:23.593Z,56.55
2018-11-07T17:47:53.649Z,56.65
2018-11-07T17:50:23.800Z,57.26
2018-11-07T17:52:54.316Z,57.14
2018-11-07T17:55:24.337Z,57.71
2018-11-07T17:57:54.091Z,57.76
2018-11-07T18:00:29.396Z,57.62
2018-11-07T18:02:58.906Z,57.59
2018-11-07T18:05:28.466Z,57.64
2018-11-07T18:07:58.078Z,57.77
2018-11-07T18:10:27.737Z,57.89
2018-11-07T18:12:57.156Z,58.34
2018-11-07T18:15:27.186Z,58.15
2018-11-07T18:17:57.144Z,58.19
2018-11-07T18:20:27.170Z,58.22
2018-11-07T18:22:57.021Z,58.25
2018-11-07T18:25:26.888Z,58.43
2018-11-07T18:27:56.797Z,58.71
2018-11-07T18:30:26.458Z,58.67
2018-11-07T18:33:01.178Z,59.12
2018-11-07T18:35:30.809Z,58.93
2018-11-07T18:38:00.318Z,58.83
2018-11-07T18:40:30.666Z,58.95
2018-11-07T18:43:00.377Z,58.98
2018-11-07T18:45:29.857Z,58.94
2018-11-07T18:47:59.421Z,57.69
2018-11-07T18:50:29.314Z,58.49
2018-11-07T18:52:58.889Z,58.59
2018-11-07T18:55:28.326Z,59.00
2018-11-07T18:57:58.340Z,59.11
2018-11-07T19:00:28.088Z,59.02
2018-11-07T19:02:57.670Z,59.07
2018-11-07T19:05:27.711Z,59.05
2018-11-07T19:07:57.973Z,59.71
2018-11-07T19:10:27.666Z,59.99
2018-11-07T19:12:57.598Z,59.92
2018-11-07T19:15:27.332Z,59.75
2018-11-07T19:17:56.974Z,59.88
2018-11-07T19:20:27.191Z,59.99
2018-11-07T19:22:56.971Z,60.14
2018-11-07T19:25:26.901Z,59.67
2018-11-07T19:27:56.884Z,59.98
2018-11-07T19:30:26.509Z,60.05
2018-11-07T19:32:56.272Z,60.19
2018-11-07T19:35:25.889Z,60.15
2018-11-07T19:37:55.732Z,60.54
2018-11-07T19:40:26.252Z,60.26
2018-11-07T19:42:55.967Z,60.79
2018-11-07T19:45:25.395Z,61.59
2018-11-07T19:47:55.178Z,61.04
2018-11-07T19:50:25.105Z,60.29
2018-11-07T19:52:54.930Z,61.02
2018-11-07T19:55:25.434Z,61.07
2018-11-07T19:58:00.046Z,61.51
2018-11-07T20:00:29.817Z,61.81
2018-11-07T20:02:59.614Z,61.83
2018-11-07T20:05:29.455Z,61.84
2018-11-07T20:07:59.261Z,62.06
2018-11-07T20:10:29.036Z,62.13
2018-11-07T20:12:58.795Z,62.42
2018-11-07T20:15:28.485Z,62.59
2018-11-07T20:17:58.129Z,62.33
2018-11-07T20:20:28.181Z,63.00
2018-11-07T20:22:58.137Z,62.47
2018-11-07T20:25:27.702Z,62.12
2018-11-07T20:27:57.464Z,62.20
2018-11-07T20:30:27.252Z,62.51
2018-11-07T20:32:56.931Z,62.53
2018-11-07T20:35:26.650Z,62.95
2018-11-07T20:37:56.345Z,62.90
2018-11-07T20:40:26.087Z,63.03
2018-11-07T20:42:55.806Z,62.79
2018-11-07T20:45:25.497Z,63.03
2018-11-07T20:47:55.280Z,62.86
2018-11-07T20:50:25.471Z,63.02
2018-11-07T20:52:55.109Z,63.11
2018-11-07T20:55:24.961Z,63.21
2018-11-07T20:57:54.917Z,63.23
2018-11-07T21:00:24.721Z,63.43
2018-11-07T21:02:54.525Z,63.03
2018-11-07T21:05:24.525Z,63.56
2018-11-07T21:07:55.081Z,63.08
2018-11-07T21:10:25.197Z,62.89
2018-11-07T21:12:55.244Z,62.89
2018-11-07T21:15:24.998Z,63.39
2018-11-07T21:17:54.886Z,63.27
2018-11-07T21:20:24.562Z,63.30
2018-11-07T21:22:54.839Z,63.31
2018-11-07T21:25:24.964Z,63.74
2018-11-07T21:27:54.613Z,63.79
2018-11-07T21:30:24.402Z,63.77
2018-11-07T21:32:54.253Z,63.68
2018-11-07T21:35:24.046Z,64.00
2018-11-07T21:37:53.739Z,64.05
2018-11-07T21:40:23.303Z,64.39
2018-11-07T21:42:53.256Z,64.59
2018-11-07T21:45:23.079Z,64.16
2018-11-07T21:47:52.758Z,65.18
2018-11-07T21:50:22.223Z,64.88
2018-11-07T21:52:51.936Z,64.82
2018-11-07T21:55:21.741Z,64.88
2018-11-07T21:57:51.326Z,65.42
2018-11-07T22:00:20.901Z,65.52
2018-11-07T22:02:51.068Z,64.91
2018-11-07T22:05:20.761Z,65.18
2018-11-07T22:07:50.489Z,65.70
2018-11-07T22:10:20.075Z,65.37
2018-11-07T22:12:49.904Z,65.59
2018-11-07T22:15:19.827Z,65.74
2018-11-07T22:17:49.954Z,66.12
2018-11-07T22:20:21.896Z,66.53
2018-11-07T22:22:51.321Z,66.34
2018-11-07T22:25:20.909Z,66.92
2018-11-07T22:27:50.937Z,67.18
2018-11-07T22:30:20.973Z,66.80
2018-11-07T22:32:50.758Z,67.53
2018-11-07T22:35:21.145Z,67.32
2018-11-07T22:37:51.237Z,67.42
2018-11-07T22:40:21.093Z,67.46
2018-11-07T22:42:51.367Z,67.11
2018-11-07T22:45:21.093Z,67.41
2018-11-07T22:47:50.771Z,67.47
2018-11-07T22:50:20.319Z,67.44
2018-11-07T22:52:50.414Z,67.43
2018-11-07T22:55:20.134Z,67.76
2018-11-07T22:57:50.022Z,68.00
2018-11-07T23:00:25.250Z,67.87
2018-11-07T23:02:56.022Z,68.09
2018-11-07T23:05:25.902Z,68.17
2018-11-07T23:07:55.866Z,68.42
2018-11-07T23:10:25.841Z,68.48
2018-11-07T23:12:56.046Z,68.22
2018-11-07T23:15:30.774Z,68.74
2018-11-07T23:18:01.035Z,67.90
2018-11-07T23:20:31.090Z,68.10
2018-11-07T23:23:01.184Z,68.02
2018-11-07T23:25:31.241Z,68.40
2018-11-07T23:28:01.242Z,68.59
2018-11-07T23:30:31.345Z,68.40
2018-11-07T23:33:01.547Z,68.66
2018-11-07T23:35:31.734Z,69.33
2018-11-07T23:38:01.622Z,69.03
2018-11-07T23:40:32.078Z,69.08
2018-11-07T23:43:02.217Z,69.53
2018-11-07T23:45:32.286Z,69.72
2018-11-07T23:48:02.414Z,70.57
2018-11-07T23:50:32.513Z,69.90
2018-11-07T23:53:02.425Z,69.76
2018-11-07T23:55:32.650Z,69.55
2018-11-07T23:58:02.749Z,69.15
